sensor_id;sensor_type;location;lat;lon;timestamp;pressure;altitude;pressure_sealevel;temperature;humidity
43838;BME280;65998;46.256;7.534;2023-08-06T00:00:00;86688.59;;;16.61;91.95
43838;BME280;65998;46.256;7.534;2023-08-06T00:02:26;86685.00;;;16.67;85.75
43838;BME280;65998;46.256;7.534;2023-08-06T00:04:51;86695.78;;;16.75;88.77
43838;BME280;65998;46.256;7.534;2023-08-06T00:07:17;86698.78;;;16.69;79.58
43838;BME280;65998;46.256;7.534;2023-08-06T00:09:43;86685.97;;;16.57;77.07
43838;BME280;65998;46.256;7.534;2023-08-06T00:12:09;86686.88;;;16.52;86.75
43838;BME280;65998;46.256;7.534;2023-08-06T00:14:35;86686.28;;;16.49;88.86
43838;BME280;65998;46.256;7.534;2023-08-06T00:17:01;86679.84;;;16.15;78.20
43838;BME280;65998;46.256;7.534;2023-08-06T00:19:27;86672.97;;;16.14;82.33
43838;BME280;65998;46.256;7.534;2023-08-06T00:21:53;86664.81;;;16.29;86.77
43838;BME280;65998;46.256;7.534;2023-08-06T00:24:19;86659.16;;;16.12;73.50
43838;BME280;65998;46.256;7.534;2023-08-06T00:26:45;86657.09;;;15.92;76.39
43838;BME280;65998;46.256;7.534;2023-08-06T00:29:10;86656.69;;;16.04;93.82
43838;BME280;65998;46.256;7.534;2023-08-06T00:31:36;86653.63;;;16.12;81.52
43838;BME280;65998;46.256;7.534;2023-08-06T00:34:02;86657.47;;;16.21;95.00
43838;BME280;65998;46.256;7.534;2023-08-06T00:36:28;86659.34;;;16.27;86.52
43838;BME280;65998;46.256;7.534;2023-08-06T00:38:53;86659.13;;;16.33;88.67
43838;BME280;65998;46.256;7.534;2023-08-06T00:41:19;86658.53;;;16.31;89.99
43838;BME280;65998;46.256;7.534;2023-08-06T00:43:45;86655.06;;;16.30;80.81
43838;BME280;65998;46.256;7.534;2023-08-06T00:46:11;86658.97;;;16.37;88.16
43838;BME280;65998;46.256;7.534;2023-08-06T00:48:37;86656.34;;;16.33;85.06
43838;BME280;65998;46.256;7.534;2023-08-06T00:51:03;86659.81;;;16.34;89.50
43838;BME280;65998;46.256;7.534;2023-08-06T00:53:29;86659.72;;;16.36;97.79
43838;BME280;65998;46.256;7.534;2023-08-06T00:55:55;86656.59;;;16.46;86.20
43838;BME280;65998;46.256;7.534;2023-08-06T00:58:20;86649.53;;;16.49;91.41
43838;BME280;65998;46.256;7.534;2023-08-06T01:00:46;86652.91;;;16.51;83.33
43838;BME280;65998;46.256;7.534;2023-08-06T01:03:12;86644.59;;;16.51;85.89
43838;BME280;65998;46.256;7.534;2023-08-06T01:05:38;86651.63;;;16.48;85.79
43838;BME280;65998;46.256;7.534;2023-08-06T01:10:45;86651.56;;;16.32;92.88
43838;BME280;65998;46.256;7.534;2023-08-06T01:13:20;86660.41;;;16.36;91.65
43838;BME280;65998;46.256;7.534;2023-08-06T01:15:54;86657.25;;;15.88;74.89
43838;BME280;65998;46.256;7.534;2023-08-06T01:18:20;86656.50;;;15.89;95.80
43838;BME280;65998;46.256;7.534;2023-08-06T01:20:46;86652.84;;;15.95;91.48
43838;BME280;65998;46.256;7.534;2023-08-06T01:23:12;86657.44;;;16.03;90.77
43838;BME280;65998;46.256;7.534;2023-08-06T01:25:47;86652.56;;;16.03;86.53
43838;BME280;65998;46.256;7.534;2023-08-06T01:30:59;86646.03;;;15.71;80.34
43838;BME280;65998;46.256;7.534;2023-08-06T01:33:27;86641.72;;;15.76;79.33
43838;BME280;65998;46.256;7.534;2023-08-06T01:35:54;86644.28;;;15.82;93.24
43838;BME280;65998;46.256;7.534;2023-08-06T01:38:20;86638.34;;;15.74;78.26
43838;BME280;65998;46.256;7.534;2023-08-06T01:40:47;86636.94;;;15.52;77.87
43838;BME280;65998;46.256;7.534;2023-08-06T01:43:12;86637.25;;;15.64;81.93
43838;BME280;65998;46.256;7.534;2023-08-06T01:45:38;86642.19;;;15.62;73.59
43838;BME280;65998;46.256;7.534;2023-08-06T01:48:04;86638.41;;;15.72;77.63
43838;BME280;65998;46.256;7.534;2023-08-06T01:50:30;86650.84;;;15.73;73.19
43838;BME280;65998;46.256;7.534;2023-08-06T01:52:55;86643.16;;;15.52;69.19
43838;BME280;65998;46.256;7.534;2023-08-06T01:55:22;86642.22;;;15.60;95.49
43838;BME280;65998;46.256;7.534;2023-08-06T01:57:47;86649.88;;;15.59;77.98
43838;BME280;65998;46.256;7.534;2023-08-06T02:00:13;86633.59;;;15.70;86.91
43838;BME280;65998;46.256;7.534;2023-08-06T02:02:39;86638.34;;;15.74;76.42
43838;BME280;65998;46.256;7.534;2023-08-06T02:05:05;86626.84;;;15.65;75.59
43838;BME280;65998;46.256;7.534;2023-08-06T02:07:31;86632.25;;;15.69;79.20
43838;BME280;65998;46.256;7.534;2023-08-06T02:09:57;86625.16;;;15.74;71.02
43838;BME280;65998;46.256;7.534;2023-08-06T02:12:22;86631.59;;;15.69;78.78
43838;BME280;65998;46.256;7.534;2023-08-06T02:14:48;86630.84;;;15.70;70.31
43838;BME280;65998;46.256;7.534;2023-08-06T02:17:14;86622.31;;;15.76;80.60
43838;BME280;65998;46.256;7.534;2023-08-06T02:19:40;86622.78;;;15.83;67.60
43838;BME280;65998;46.256;7.534;2023-08-06T02:22:05;86621.38;;;15.84;67.30
43838;BME280;65998;46.256;7.534;2023-08-06T02:24:31;86614.47;;;15.83;68.00
43838;BME280;65998;46.256;7.534;2023-08-06T02:26:57;86618.31;;;15.92;72.65
43838;BME280;65998;46.256;7.534;2023-08-06T02:29:23;86612.16;;;15.89;70.21
43838;BME280;65998;46.256;7.534;2023-08-06T02:31:48;86606.03;;;15.87;68.24
43838;BME280;65998;46.256;7.534;2023-08-06T02:34:14;86606.97;;;15.79;66.46
43838;BME280;65998;46.256;7.534;2023-08-06T02:36:40;86611.25;;;15.76;73.69
43838;BME280;65998;46.256;7.534;2023-08-06T02:39:06;86603.59;;;15.77;63.36
43838;BME280;65998;46.256;7.534;2023-08-06T02:41:31;86602.78;;;15.80;63.31
43838;BME280;65998;46.256;7.534;2023-08-06T02:43:57;86597.09;;;15.84;62.63
43838;BME280;65998;46.256;7.534;2023-08-06T02:46:23;86592.78;;;15.89;58.63
43838;BME280;65998;46.256;7.534;2023-08-06T02:48:49;86592.25;;;15.85;61.60
43838;BME280;65998;46.256;7.534;2023-08-06T02:51:14;86598.25;;;15.50;53.60
43838;BME280;65998;46.256;7.534;2023-08-06T02:53:41;86590.75;;;15.25;57.28
43838;BME280;65998;46.256;7.534;2023-08-06T02:56:06;86597.78;;;15.22;74.29
43838;BME280;65998;46.256;7.534;2023-08-06T02:58:32;86597.31;;;15.37;67.73
43838;BME280;65998;46.256;7.534;2023-08-06T03:00:58;86601.69;;;15.50;74.65
43838;BME280;65998;46.256;7.534;2023-08-06T03:03:24;86601.38;;;15.60;82.74
43838;BME280;65998;46.256;7.534;2023-08-06T03:05:53;86603.34;;;15.64;64.73
43838;BME280;65998;46.256;7.534;2023-08-06T03:08:19;86593.88;;;15.78;75.49
43838;BME280;65998;46.256;7.534;2023-08-06T03:10:45;86590.81;;;15.86;87.46
43838;BME280;65998;46.256;7.534;2023-08-06T03:13:11;86587.97;;;15.88;70.10
43838;BME280;65998;46.256;7.534;2023-08-06T03:15:37;86587.84;;;15.92;81.47
43838;BME280;65998;46.256;7.534;2023-08-06T03:18:03;86580.94;;;15.91;68.46
43838;BME280;65998;46.256;7.534;2023-08-06T03:20:29;86581.91;;;15.83;68.67
43838;BME280;65998;46.256;7.534;2023-08-06T03:22:55;86578.38;;;15.85;67.45
43838;BME280;65998;46.256;7.534;2023-08-06T03:25:20;86567.75;;;15.91;71.28
43838;BME280;65998;46.256;7.534;2023-08-06T03:27:46;86569.72;;;15.95;67.76
43838;BME280;65998;46.256;7.534;2023-08-06T03:30:12;86580.63;;;15.80;58.24
43838;BME280;65998;46.256;7.534;2023-08-06T03:32:38;86585.03;;;15.73;62.60
43838;BME280;65998;46.256;7.534;2023-08-06T03:35:04;86586.44;;;15.30;62.46
43838;BME280;65998;46.256;7.534;2023-08-06T03:37:30;86575.47;;;15.47;71.81
43838;BME280;65998;46.256;7.534;2023-08-06T03:39:55;86580.34;;;15.47;64.90
43838;BME280;65998;46.256;7.534;2023-08-06T03:42:22;86581.38;;;15.58;79.52
43838;BME280;65998;46.256;7.534;2023-08-06T03:44:47;86584.81;;;15.58;74.90
43838;BME280;65998;46.256;7.534;2023-08-06T03:47:13;86585.22;;;15.46;67.29
43838;BME280;65998;46.256;7.534;2023-08-06T03:49:39;86582.16;;;15.54;67.88
43838;BME280;65998;46.256;7.534;2023-08-06T03:52:05;86580.75;;;15.55;72.74
43838;BME280;65998;46.256;7.534;2023-08-06T03:54:31;86578.78;;;15.52;73.98
43838;BME280;65998;46.256;7.534;2023-08-06T03:56:57;86592.16;;;15.24;69.22
43838;BME280;65998;46.256;7.534;2023-08-06T03:59:22;86596.94;;;15.05;67.56
43838;BME280;65998;46.256;7.534;2023-08-06T04:01:48;86609.03;;;14.73;69.41
43838;BME280;65998;46.256;7.534;2023-08-06T04:04:14;86622.22;;;14.47;74.89
43838;BME280;65998;46.256;7.534;2023-08-06T04:06:40;86623.59;;;14.71;93.35
43838;BME280;65998;46.256;7.534;2023-08-06T04:09:06;86630.47;;;14.49;85.66
43838;BME280;65998;46.256;7.534;2023-08-06T04:11:32;86628.66;;;14.39;100.00
43838;BME280;65998;46.256;7.534;2023-08-06T04:13:57;86635.56;;;14.16;95.88
43838;BME280;65998;46.256;7.534;2023-08-06T04:16:23;86630.50;;;13.99;78.39
43838;BME280;65998;46.256;7.534;2023-08-06T04:18:49;86631.22;;;13.73;80.62
43838;BME280;65998;46.256;7.534;2023-08-06T04:21:15;86631.91;;;13.73;84.22
43838;BME280;65998;46.256;7.534;2023-08-06T04:23:41;86631.50;;;13.88;93.32
43838;BME280;65998;46.256;7.534;2023-08-06T04:26:07;86636.84;;;13.94;85.62
43838;BME280;65998;46.256;7.534;2023-08-06T04:28:32;86627.50;;;13.83;80.00
43838;BME280;65998;46.256;7.534;2023-08-06T04:30:59;86637.34;;;13.76;85.04
43838;BME280;65998;46.256;7.534;2023-08-06T04:33:24;86631.41;;;13.92;81.53
43838;BME280;65998;46.256;7.534;2023-08-06T04:35:54;86635.78;;;14.07;82.39
43838;BME280;65998;46.256;7.534;2023-08-06T04:38:20;86627.09;;;14.22;83.23
43838;BME280;65998;46.256;7.534;2023-08-06T04:40:46;86624.53;;;14.38;78.32
43838;BME280;65998;46.256;7.534;2023-08-06T04:43:11;86630.06;;;14.63;99.23
43838;BME280;65998;46.256;7.534;2023-08-06T04:45:37;86621.56;;;14.69;92.71
43838;BME280;65998;46.256;7.534;2023-08-06T04:48:03;86617.53;;;14.42;85.49
43838;BME280;65998;46.256;7.534;2023-08-06T04:50:29;86617.72;;;14.60;93.10
43838;BME280;65998;46.256;7.534;2023-08-06T04:52:55;86617.38;;;14.48;72.89
43838;BME280;65998;46.256;7.534;2023-08-06T04:55:21;86623.66;;;14.69;76.81
43838;BME280;65998;46.256;7.534;2023-08-06T04:57:46;86625.13;;;14.89;84.97
43838;BME280;65998;46.256;7.534;2023-08-06T05:00:12;86617.94;;;14.75;74.30
43838;BME280;65998;46.256;7.534;2023-08-06T05:02:38;86620.94;;;14.90;84.38
43838;BME280;65998;46.256;7.534;2023-08-06T05:05:04;86630.59;;;14.91;92.07
43838;BME280;65998;46.256;7.534;2023-08-06T05:07:30;86624.09;;;14.78;74.15
43838;BME280;65998;46.256;7.534;2023-08-06T05:09:56;86640.19;;;14.71;75.78
43838;BME280;65998;46.256;7.534;2023-08-06T05:12:22;86638.41;;;14.84;89.56
43838;BME280;65998;46.256;7.534;2023-08-06T05:14:48;86631.84;;;14.73;75.37
43838;BME280;65998;46.256;7.534;2023-08-06T05:17:13;86633.69;;;14.58;75.07
43838;BME280;65998;46.256;7.534;2023-08-06T05:19:39;86628.94;;;14.29;72.18
43838;BME280;65998;46.256;7.534;2023-08-06T05:22:05;86620.84;;;14.23;76.87
43838;BME280;65998;46.256;7.534;2023-08-06T05:24:31;86627.59;;;14.28;78.15
43838;BME280;65998;46.256;7.534;2023-08-06T05:26:57;86629.47;;;14.11;78.00
43838;BME280;65998;46.256;7.534;2023-08-06T05:29:23;86639.66;;;14.42;99.90
43838;BME280;65998;46.256;7.534;2023-08-06T05:31:48;86635.78;;;14.57;88.02
43838;BME280;65998;46.256;7.534;2023-08-06T05:34:14;86626.84;;;14.55;73.84
43838;BME280;65998;46.256;7.534;2023-08-06T05:36:40;86630.25;;;14.32;68.30
43838;BME280;65998;46.256;7.534;2023-08-06T05:39:06;86629.06;;;14.73;88.11
43838;BME280;65998;46.256;7.534;2023-08-06T05:41:32;86624.03;;;14.57;79.76
43838;BME280;65998;46.256;7.534;2023-08-06T05:43:58;86632.31;;;14.32;71.23
43838;BME280;65998;46.256;7.534;2023-08-06T05:46:23;86632.44;;;14.28;79.38
43838;BME280;65998;46.256;7.534;2023-08-06T05:48:49;86636.56;;;14.29;86.78
43838;BME280;65998;46.256;7.534;2023-08-06T05:51:15;86645.53;;;14.54;100.00
43838;BME280;65998;46.256;7.534;2023-08-06T05:53:41;86640.56;;;14.59;87.64
43838;BME280;65998;46.256;7.534;2023-08-06T05:56:07;86640.50;;;14.84;92.26
43838;BME280;65998;46.256;7.534;2023-08-06T05:58:33;86656.06;;;14.95;90.13
43838;BME280;65998;46.256;7.534;2023-08-06T06:00:58;86656.13;;;14.93;84.81
43838;BME280;65998;46.256;7.534;2023-08-06T06:03:24;86661.03;;;14.91;89.96
43838;BME280;65998;46.256;7.534;2023-08-06T06:05:50;86661.16;;;14.87;83.03
43838;BME280;65998;46.256;7.534;2023-08-06T06:08:16;86659.63;;;14.92;81.52
43838;BME280;65998;46.256;7.534;2023-08-06T06:10:41;86663.00;;;14.94;81.74
43838;BME280;65998;46.256;7.534;2023-08-06T06:13:07;86668.97;;;15.03;76.79
43838;BME280;65998;46.256;7.534;2023-08-06T06:15:33;86669.69;;;15.01;73.70
43838;BME280;65998;46.256;7.534;2023-08-06T06:17:59;86661.59;;;14.95;73.68
43838;BME280;65998;46.256;7.534;2023-08-06T06:20:25;86669.41;;;14.89;84.59
43838;BME280;65998;46.256;7.534;2023-08-06T06:22:51;86686.13;;;14.85;82.97
43838;BME280;65998;46.256;7.534;2023-08-06T06:25:16;86683.72;;;14.73;89.93
43838;BME280;65998;46.256;7.534;2023-08-06T06:27:42;86686.44;;;14.50;98.32
43838;BME280;65998;46.256;7.534;2023-08-06T06:30:08;86695.72;;;14.13;89.00
43838;BME280;65998;46.256;7.534;2023-08-06T06:32:34;86692.84;;;13.92;97.46
43838;BME280;65998;46.256;7.534;2023-08-06T06:35:00;86678.72;;;13.78;92.47
43838;BME280;65998;46.256;7.534;2023-08-06T06:37:26;86680.03;;;13.81;96.64
43838;BME280;65998;46.256;7.534;2023-08-06T06:39:51;86689.03;;;13.79;85.33
43838;BME280;65998;46.256;7.534;2023-08-06T06:42:17;86689.44;;;13.90;89.28
43838;BME280;65998;46.256;7.534;2023-08-06T06:44:43;86690.59;;;13.99;91.86
43838;BME280;65998;46.256;7.534;2023-08-06T06:47:09;86701.09;;;14.19;92.72
43838;BME280;65998;46.256;7.534;2023-08-06T06:49:35;86711.50;;;14.17;88.91
43838;BME280;65998;46.256;7.534;2023-08-06T06:52:01;86706.78;;;14.13;95.52
43838;BME280;65998;46.256;7.534;2023-08-06T06:54:27;86704.31;;;14.28;82.68
43838;BME280;65998;46.256;7.534;2023-08-06T06:56:53;86712.59;;;14.28;85.12
43838;BME280;65998;46.256;7.534;2023-08-06T06:59:18;86713.38;;;14.24;80.52
43838;BME280;65998;46.256;7.534;2023-08-06T07:01:44;86714.50;;;14.09;78.56
43838;BME280;65998;46.256;7.534;2023-08-06T07:04:10;86706.50;;;14.23;79.44
43838;BME280;65998;46.256;7.534;2023-08-06T07:06:36;86713.38;;;14.24;79.58
43838;BME280;65998;46.256;7.534;2023-08-06T07:09:02;86714.63;;;14.29;78.09
43838;BME280;65998;46.256;7.534;2023-08-06T07:11:28;86718.50;;;14.14;77.02
43838;BME280;65998;46.256;7.534;2023-08-06T07:13:57;86709.88;;;14.26;77.66
43838;BME280;65998;46.256;7.534;2023-08-06T07:16:23;86719.56;;;14.52;73.33
43838;BME280;65998;46.256;7.534;2023-08-06T07:18:50;86725.81;;;14.75;73.24
43838;BME280;65998;46.256;7.534;2023-08-06T07:21:17;86721.47;;;15.05;73.76
43838;BME280;65998;46.256;7.534;2023-08-06T07:23:42;86724.59;;;14.93;70.61
43838;BME280;65998;46.256;7.534;2023-08-06T07:26:09;86731.75;;;15.09;69.55
43838;BME280;65998;46.256;7.534;2023-08-06T07:28:34;86722.88;;;15.27;73.89
43838;BME280;65998;46.256;7.534;2023-08-06T07:31:02;86721.59;;;15.24;74.66
43838;BME280;65998;46.256;7.534;2023-08-06T07:33:28;86717.47;;;15.23;79.61
43838;BME280;65998;46.256;7.534;2023-08-06T07:35:54;86716.41;;;15.34;78.89
43838;BME280;65998;46.256;7.534;2023-08-06T07:38:20;86718.31;;;15.40;78.85
43838;BME280;65998;46.256;7.534;2023-08-06T07:40:46;86719.88;;;15.56;75.00
43838;BME280;65998;46.256;7.534;2023-08-06T07:43:11;86718.06;;;15.71;72.81
43838;BME280;65998;46.256;7.534;2023-08-06T07:45:38;86724.63;;;15.82;72.77
43838;BME280;65998;46.256;7.534;2023-08-06T07:48:03;86724.34;;;16.11;70.09
43838;BME280;65998;46.256;7.534;2023-08-06T07:50:30;86731.72;;;15.77;66.33
43838;BME280;65998;46.256;7.534;2023-08-06T07:52:55;86725.28;;;15.62;72.20
43838;BME280;65998;46.256;7.534;2023-08-06T07:55:22;86730.13;;;15.61;80.16
43838;BME280;65998;46.256;7.534;2023-08-06T07:57:47;86738.72;;;15.51;75.68
43838;BME280;65998;46.256;7.534;2023-08-06T08:00:13;86746.75;;;15.61;78.98
43838;BME280;65998;46.256;7.534;2023-08-06T08:02:39;86750.06;;;15.43;74.54
43838;BME280;65998;46.256;7.534;2023-08-06T08:05:05;86751.47;;;15.19;74.64
43838;BME280;65998;46.256;7.534;2023-08-06T08:07:31;86752.47;;;15.10;71.66
43838;BME280;65998;46.256;7.534;2023-08-06T08:09:57;86747.84;;;15.25;82.26
43838;BME280;65998;46.256;7.534;2023-08-06T08:12:22;86744.09;;;15.34;77.09
43838;BME280;65998;46.256;7.534;2023-08-06T08:14:49;86740.09;;;15.75;72.68
43838;BME280;65998;46.256;7.534;2023-08-06T08:17:14;86744.69;;;15.83;72.13
43838;BME280;65998;46.256;7.534;2023-08-06T08:19:40;86747.19;;;16.33;71.59
43838;BME280;65998;46.256;7.534;2023-08-06T08:22:06;86745.06;;;16.75;67.17
43838;BME280;65998;46.256;7.534;2023-08-06T08:24:32;86745.81;;;17.30;65.94
43838;BME280;65998;46.256;7.534;2023-08-06T08:26:58;86747.69;;;17.35;60.25
43838;BME280;65998;46.256;7.534;2023-08-06T08:29:24;86746.75;;;17.78;61.18
43838;BME280;65998;46.256;7.534;2023-08-06T08:31:50;86749.34;;;18.18;58.52
43838;BME280;65998;46.256;7.534;2023-08-06T08:34:16;86747.81;;;17.69;59.56
43838;BME280;65998;46.256;7.534;2023-08-06T08:36:42;86747.50;;;17.58;58.77
43838;BME280;65998;46.256;7.534;2023-08-06T08:39:08;86761.66;;;17.14;58.49
43838;BME280;65998;46.256;7.534;2023-08-06T08:41:34;86768.84;;;16.88;62.38
43838;BME280;65998;46.256;7.534;2023-08-06T08:44:01;86773.34;;;16.79;61.27
43838;BME280;65998;46.256;7.534;2023-08-06T08:46:27;86765.41;;;17.07;65.48
43838;BME280;65998;46.256;7.534;2023-08-06T08:48:55;86770.50;;;17.38;58.40
43838;BME280;65998;46.256;7.534;2023-08-06T08:51:21;86766.53;;;17.14;60.29
43838;BME280;65998;46.256;7.534;2023-08-06T08:53:47;86769.16;;;16.99;62.12
43838;BME280;65998;46.256;7.534;2023-08-06T08:56:15;86767.41;;;16.71;62.79
43838;BME280;65998;46.256;7.534;2023-08-06T08:58:41;86773.59;;;16.50;65.27
43838;BME280;65998;46.256;7.534;2023-08-06T09:01:07;86776.94;;;16.34;65.35
43838;BME280;65998;46.256;7.534;2023-08-06T09:03:35;86774.31;;;16.30;70.13
43838;BME280;65998;46.256;7.534;2023-08-06T09:06:01;86780.63;;;16.47;65.98
43838;BME280;65998;46.256;7.534;2023-08-06T09:08:30;86772.22;;;16.10;62.05
43838;BME280;65998;46.256;7.534;2023-08-06T09:10:58;86774.09;;;16.15;62.89
43838;BME280;65998;46.256;7.534;2023-08-06T09:13:26;86774.22;;;16.11;62.52
43838;BME280;65998;46.256;7.534;2023-08-06T09:15:51;86764.25;;;16.81;62.38
43838;BME280;65998;46.256;7.534;2023-08-06T09:18:24;86767.56;;;17.23;62.16
43838;BME280;65998;46.256;7.534;2023-08-06T09:20:50;86766.78;;;17.62;61.50
43838;BME280;65998;46.256;7.534;2023-08-06T09:23:16;86768.69;;;18.03;56.77
43838;BME280;65998;46.256;7.534;2023-08-06T09:25:42;86776.03;;;18.11;57.65
43838;BME280;65998;46.256;7.534;2023-08-06T09:28:08;86775.22;;;17.79;58.89
43838;BME280;65998;46.256;7.534;2023-08-06T09:30:35;86769.13;;;17.55;55.13
43838;BME280;65998;46.256;7.534;2023-08-06T09:33:01;86771.59;;;17.82;57.07
43838;BME280;65998;46.256;7.534;2023-08-06T09:35:28;86769.88;;;18.08;57.46
43838;BME280;65998;46.256;7.534;2023-08-06T09:37:54;86782.00;;;18.01;53.87
43838;BME280;65998;46.256;7.534;2023-08-06T09:40:29;86776.06;;;18.28;57.58
43838;BME280;65998;46.256;7.534;2023-08-06T09:42:56;86788.25;;;18.18;54.43
43838;BME280;65998;46.256;7.534;2023-08-06T09:45:22;86789.66;;;18.00;54.49
43838;BME280;65998;46.256;7.534;2023-08-06T09:47:49;86793.25;;;17.80;57.14
43838;BME280;65998;46.256;7.534;2023-08-06T09:50:18;86797.75;;;17.52;54.85
43838;BME280;65998;46.256;7.534;2023-08-06T09:52:46;86803.75;;;17.40;58.49
43838;BME280;65998;46.256;7.534;2023-08-06T09:55:12;86793.91;;;17.43;56.92
43838;BME280;65998;46.256;7.534;2023-08-06T09:57:42;86802.03;;;17.49;58.33
43838;BME280;65998;46.256;7.534;2023-08-06T10:00:09;86799.63;;;17.58;58.58
43838;BME280;65998;46.256;7.534;2023-08-06T10:02:38;86808.94;;;17.50;54.55
43838;BME280;65998;46.256;7.534;2023-08-06T10:05:05;86811.31;;;17.60;58.90
43838;BME280;65998;46.256;7.534;2023-08-06T10:07:31;86813.56;;;17.55;57.35
43838;BME280;65998;46.256;7.534;2023-08-06T10:09:57;86818.09;;;17.46;55.57
43838;BME280;65998;46.256;7.534;2023-08-06T10:12:24;86809.00;;;17.67;57.27
43838;BME280;65998;46.256;7.534;2023-08-06T10:14:50;86801.88;;;17.91;56.69
43838;BME280;65998;46.256;7.534;2023-08-06T10:17:19;86803.75;;;18.13;54.21
43838;BME280;65998;46.256;7.534;2023-08-06T10:19:46;86811.03;;;18.39;55.94
43838;BME280;65998;46.256;7.534;2023-08-06T10:22:14;86807.41;;;18.43;52.33
43838;BME280;65998;46.256;7.534;2023-08-06T10:24:47;86809.03;;;18.38;52.91
43838;BME280;65998;46.256;7.534;2023-08-06T10:27:13;86812.97;;;18.26;54.27
43838;BME280;65998;46.256;7.534;2023-08-06T10:29:39;86811.66;;;18.06;53.44
43838;BME280;65998;46.256;7.534;2023-08-06T10:32:05;86812.94;;;18.09;54.48
43838;BME280;65998;46.256;7.534;2023-08-06T10:37:16;86820.41;;;18.48;53.42
43838;BME280;65998;46.256;7.534;2023-08-06T10:39:49;86814.94;;;18.46;51.34
43838;BME280;65998;46.256;7.534;2023-08-06T10:42:21;86807.84;;;18.49;52.54
43838;BME280;65998;46.256;7.534;2023-08-06T10:47:37;86817.75;;;18.80;53.54
43838;BME280;65998;46.256;7.534;2023-08-06T10:50:03;86818.44;;;18.80;50.86
43838;BME280;65998;46.256;7.534;2023-08-06T10:52:29;86819.19;;;18.79;52.64
43838;BME280;65998;46.256;7.534;2023-08-06T10:54:55;86816.16;;;18.85;53.30
43838;BME280;65998;46.256;7.534;2023-08-06T10:57:21;86819.94;;;18.94;51.74
43838;BME280;65998;46.256;7.534;2023-08-06T10:59:47;86821.28;;;19.12;52.16
43838;BME280;65998;46.256;7.534;2023-08-06T11:02:13;86817.75;;;18.97;50.12
43838;BME280;65998;46.256;7.534;2023-08-06T11:04:39;86810.47;;;19.04;49.59
43838;BME280;65998;46.256;7.534;2023-08-06T11:07:06;86805.16;;;19.14;50.41
43838;BME280;65998;46.256;7.534;2023-08-06T11:09:32;86816.59;;;19.23;50.63
43838;BME280;65998;46.256;7.534;2023-08-06T11:11:58;86818.94;;;19.33;49.50
43838;BME280;65998;46.256;7.534;2023-08-06T11:14:24;86808.00;;;19.29;48.50
43838;BME280;65998;46.256;7.534;2023-08-06T11:16:50;86815.50;;;19.33;49.73
43838;BME280;65998;46.256;7.534;2023-08-06T11:19:16;86816.28;;;19.14;48.49
43838;BME280;65998;46.256;7.534;2023-08-06T11:21:43;86807.78;;;19.02;49.66
43838;BME280;65998;46.256;7.534;2023-08-06T11:24:09;86818.34;;;18.99;50.10
43838;BME280;65998;46.256;7.534;2023-08-06T11:26:36;86808.47;;;19.02;51.06
43838;BME280;65998;46.256;7.534;2023-08-06T11:29:02;86811.47;;;19.13;49.24
43838;BME280;65998;46.256;7.534;2023-08-06T11:31:28;86812.75;;;19.16;49.82
43838;BME280;65998;46.256;7.534;2023-08-06T11:33:54;86817.72;;;19.13;48.49
43838;BME280;65998;46.256;7.534;2023-08-06T11:36:33;86816.53;;;19.25;48.76
43838;BME280;65998;46.256;7.534;2023-08-06T11:38:59;86811.44;;;19.30;49.07
43838;BME280;65998;46.256;7.534;2023-08-06T11:41:29;86807.34;;;19.43;50.74
43838;BME280;65998;46.256;7.534;2023-08-06T11:43:54;86809.38;;;19.45;49.31
43838;BME280;65998;46.256;7.534;2023-08-06T11:46:21;86821.28;;;19.43;48.60
43838;BME280;65998;46.256;7.534;2023-08-06T11:48:54;86815.91;;;19.39;47.65
43838;BME280;65998;46.256;7.534;2023-08-06T11:51:23;86807.44;;;19.41;47.14
43838;BME280;65998;46.256;7.534;2023-08-06T11:53:49;86802.78;;;19.53;45.70
43838;BME280;65998;46.256;7.534;2023-08-06T11:56:15;86815.28;;;19.54;46.85
43838;BME280;65998;46.256;7.534;2023-08-06T11:58:42;86813.03;;;19.41;47.31
43838;BME280;65998;46.256;7.534;2023-08-06T12:01:08;86809.28;;;19.47;47.38
43838;BME280;65998;46.256;7.534;2023-08-06T12:03:38;86807.75;;;19.19;47.58
43838;BME280;65998;46.256;7.534;2023-08-06T12:06:05;86824.53;;;19.33;47.10
43838;BME280;65998;46.256;7.534;2023-08-06T12:08:30;86815.25;;;19.22;45.50
43838;BME280;65998;46.256;7.534;2023-08-06T12:10:56;86819.09;;;19.46;47.11
43838;BME280;65998;46.256;7.534;2023-08-06T12:13:22;86830.69;;;19.67;47.43
43838;BME280;65998;46.256;7.534;2023-08-06T12:15:48;86830.13;;;19.65;45.94
43838;BME280;65998;46.256;7.534;2023-08-06T12:18:14;86838.78;;;19.42;46.70
43838;BME280;65998;46.256;7.534;2023-08-06T12:20:40;86833.69;;;19.15;48.40
43838;BME280;65998;46.256;7.534;2023-08-06T12:23:05;86839.09;;;18.86;46.11
43838;BME280;65998;46.256;7.534;2023-08-06T12:25:31;86843.88;;;18.70;47.54
43838;BME280;65998;46.256;7.534;2023-08-06T12:27:57;86830.50;;;18.75;49.26
43838;BME280;65998;46.256;7.534;2023-08-06T12:30:23;86836.66;;;18.77;46.95
43838;BME280;65998;46.256;7.534;2023-08-06T12:32:48;86841.03;;;18.89;49.69
43838;BME280;65998;46.256;7.534;2023-08-06T12:35:15;86840.00;;;19.13;48.21
43838;BME280;65998;46.256;7.534;2023-08-06T12:37:40;86836.69;;;19.26;48.07
43838;BME280;65998;46.256;7.534;2023-08-06T12:40:06;86842.88;;;19.11;46.11
43838;BME280;65998;46.256;7.534;2023-08-06T12:42:32;86844.63;;;19.19;45.62
43838;BME280;65998;46.256;7.534;2023-08-06T12:44:58;86844.66;;;19.51;46.58
43838;BME280;65998;46.256;7.534;2023-08-06T12:47:24;86840.50;;;19.66;47.38
43838;BME280;65998;46.256;7.534;2023-08-06T12:49:50;86846.09;;;19.50;46.88
43838;BME280;65998;46.256;7.534;2023-08-06T12:52:16;86841.34;;;19.31;46.72
43838;BME280;65998;46.256;7.534;2023-08-06T12:54:42;86853.25;;;19.13;44.93
43838;BME280;65998;46.256;7.534;2023-08-06T12:57:08;86861.38;;;19.02;47.90
43838;BME280;65998;46.256;7.534;2023-08-06T12:59:34;86851.75;;;19.16;48.21
43838;BME280;65998;46.256;7.534;2023-08-06T13:02:00;86853.44;;;19.09;47.55
43838;BME280;65998;46.256;7.534;2023-08-06T13:04:26;86845.50;;;19.16;45.73